sensor_id;sensor_type;location;lat;lon;timestamp;P1;durP1;ratioP1;P2;durP2;ratioP2
9398;SDS011;4739;49.334;8.792;2022-08-21T00:01:15;2.97;;;2.10;;
9398;SDS011;4739;49.334;8.792;2022-08-21T00:03:41;2.47;;;2.20;;
9398;SDS011;4739;49.334;8.792;2022-08-21T00:06:08;2.20;;;1.93;;
9398;SDS011;4739;49.334;8.792;2022-08-21T00:08:34;3.23;;;2.17;;
9398;SDS011;4739;49.334;8.792;2022-08-21T00:11:00;3.93;;;2.27;;
9398;SDS011;4739;49.334;8.792;2022-08-21T00:13:26;3.33;;;2.50;;
9398;SDS011;4739;49.334;8.792;2022-08-21T00:15:52;3.23;;;2.47;;
9398;SDS011;4739;49.334;8.792;2022-08-21T00:18:18;2.70;;;2.17;;
9398;SDS011;4739;49.334;8.792;2022-08-21T00:20:45;3.23;;;2.37;;
9398;SDS011;4739;49.334;8.792;2022-08-21T00:23:11;3.10;;;2.63;;
9398;SDS011;4739;49.334;8.792;2022-08-21T00:25:38;2.67;;;2.47;;
9398;SDS011;4739;49.334;8.792;2022-08-21T00:28:04;2.60;;;2.40;;
9398;SDS011;4739;49.334;8.792;2022-08-21T00:30:31;2.47;;;2.00;;
9398;SDS011;4739;49.334;8.792;2022-08-21T00:32:58;2.87;;;2.30;;
9398;SDS011;4739;49.334;8.792;2022-08-21T00:35:26;4.70;;;2.57;;
9398;SDS011;4739;49.334;8.792;2022-08-21T00:37:52;3.33;;;2.53;;
9398;SDS011;4739;49.334;8.792;2022-08-21T00:40:19;3.87;;;2.50;;
9398;SDS011;4739;49.334;8.792;2022-08-21T00:42:46;4.50;;;2.53;;
9398;SDS011;4739;49.334;8.792;2022-08-21T00:45:12;3.63;;;2.20;;
9398;SDS011;4739;49.334;8.792;2022-08-21T00:47:38;2.50;;;2.30;;
9398;SDS011;4739;49.334;8.792;2022-08-21T00:50:06;2.87;;;2.40;;
9398;SDS011;4739;49.334;8.792;2022-08-21T00:52:32;2.40;;;2.20;;
9398;SDS011;4739;49.334;8.792;2022-08-21T00:54:59;3.90;;;2.27;;
9398;SDS011;4739;49.334;8.792;2022-08-21T00:57:27;3.63;;;2.77;;
9398;SDS011;4739;49.334;8.792;2022-08-21T00:59:56;3.50;;;2.77;;
9398;SDS011;4739;49.334;8.792;2022-08-21T01:02:24;3.30;;;2.80;;
9398;SDS011;4739;49.334;8.792;2022-08-21T01:04:50;2.93;;;2.63;;
9398;SDS011;4739;49.334;8.792;2022-08-21T01:07:16;3.47;;;2.63;;
9398;SDS011;4739;49.334;8.792;2022-08-21T01:09:42;2.70;;;2.50;;
9398;SDS011;4739;49.334;8.792;2022-08-21T01:12:09;3.10;;;2.60;;
9398;SDS011;4739;49.334;8.792;2022-08-21T01:14:35;4.27;;;2.80;;
9398;SDS011;4739;49.334;8.792;2022-08-21T01:17:02;3.80;;;2.80;;
9398;SDS011;4739;49.334;8.792;2022-08-21T01:19:28;2.80;;;2.50;;
9398;SDS011;4739;49.334;8.792;2022-08-21T01:21:54;3.93;;;2.93;;
9398;SDS011;4739;49.334;8.792;2022-08-21T01:24:20;3.20;;;2.90;;
9398;SDS011;4739;49.334;8.792;2022-08-21T01:26:47;3.77;;;2.73;;
9398;SDS011;4739;49.334;8.792;2022-08-21T01:29:20;3.90;;;2.93;;
9398;SDS011;4739;49.334;8.792;2022-08-21T01:31:48;4.00;;;2.97;;
9398;SDS011;4739;49.334;8.792;2022-08-21T01:34:14;4.07;;;2.83;;
9398;SDS011;4739;49.334;8.792;2022-08-21T01:36:41;4.03;;;2.67;;
9398;SDS011;4739;49.334;8.792;2022-08-21T01:39:07;2.93;;;2.70;;
9398;SDS011;4739;49.334;8.792;2022-08-21T01:41:33;2.97;;;2.30;;
9398;SDS011;4739;49.334;8.792;2022-08-21T01:43:59;3.67;;;2.90;;
9398;SDS011;4739;49.334;8.792;2022-08-21T01:46:25;3.77;;;3.23;;
9398;SDS011;4739;49.334;8.792;2022-08-21T01:48:51;3.17;;;2.87;;
9398;SDS011;4739;49.334;8.792;2022-08-21T01:51:17;3.47;;;2.97;;
9398;SDS011;4739;49.334;8.792;2022-08-21T01:53:43;3.60;;;3.23;;
9398;SDS011;4739;49.334;8.792;2022-08-21T01:56:10;3.43;;;3.07;;
9398;SDS011;4739;49.334;8.792;2022-08-21T01:58:36;3.53;;;2.97;;
9398;SDS011;4739;49.334;8.792;2022-08-21T02:01:03;3.40;;;2.70;;
9398;SDS011;4739;49.334;8.792;2022-08-21T02:03:29;3.33;;;2.97;;
9398;SDS011;4739;49.334;8.792;2022-08-21T02:05:55;3.27;;;2.90;;
9398;SDS011;4739;49.334;8.792;2022-08-21T02:08:22;3.77;;;3.00;;
9398;SDS011;4739;49.334;8.792;2022-08-21T02:10:48;4.30;;;2.93;;
9398;SDS011;4739;49.334;8.792;2022-08-21T02:13:15;3.93;;;3.23;;
9398;SDS011;4739;49.334;8.792;2022-08-21T02:15:41;3.40;;;2.90;;
9398;SDS011;4739;49.334;8.792;2022-08-21T02:18:08;3.80;;;3.03;;
9398;SDS011;4739;49.334;8.792;2022-08-21T02:20:35;3.37;;;3.07;;
9398;SDS011;4739;49.334;8.792;2022-08-21T02:23:01;4.13;;;3.10;;
9398;SDS011;4739;49.334;8.792;2022-08-21T02:25:27;3.90;;;2.80;;
9398;SDS011;4739;49.334;8.792;2022-08-21T02:27:54;3.13;;;2.57;;
9398;SDS011;4739;49.334;8.792;2022-08-21T02:30:22;3.70;;;3.10;;
9398;SDS011;4739;49.334;8.792;2022-08-21T02:32:49;4.30;;;3.13;;
9398;SDS011;4739;49.334;8.792;2022-08-21T02:35:15;3.00;;;2.70;;
9398;SDS011;4739;49.334;8.792;2022-08-21T02:37:45;3.87;;;3.00;;
9398;SDS011;4739;49.334;8.792;2022-08-21T02:40:12;3.00;;;2.63;;
9398;SDS011;4739;49.334;8.792;2022-08-21T02:42:38;3.10;;;2.90;;
9398;SDS011;4739;49.334;8.792;2022-08-21T02:45:05;3.87;;;3.47;;
9398;SDS011;4739;49.334;8.792;2022-08-21T02:47:31;4.40;;;2.80;;
9398;SDS011;4739;49.334;8.792;2022-08-21T02:49:57;4.03;;;3.20;;
9398;SDS011;4739;49.334;8.792;2022-08-21T02:52:23;4.60;;;3.47;;
9398;SDS011;4739;49.334;8.792;2022-08-21T02:54:49;3.70;;;3.40;;
9398;SDS011;4739;49.334;8.792;2022-08-21T02:57:15;4.00;;;3.20;;
9398;SDS011;4739;49.334;8.792;2022-08-21T02:59:41;4.50;;;3.47;;
9398;SDS011;4739;49.334;8.792;2022-08-21T03:02:07;3.47;;;3.17;;
9398;SDS011;4739;49.334;8.792;2022-08-21T03:04:33;3.43;;;3.13;;
9398;SDS011;4739;49.334;8.792;2022-08-21T03:06:59;3.30;;;3.00;;
9398;SDS011;4739;49.334;8.792;2022-08-21T03:09:25;3.67;;;3.37;;
9398;SDS011;4739;49.334;8.792;2022-08-21T03:11:51;3.53;;;3.23;;
9398;SDS011;4739;49.334;8.792;2022-08-21T03:14:18;5.30;;;3.50;;
9398;SDS011;4739;49.334;8.792;2022-08-21T03:16:44;3.43;;;3.13;;
9398;SDS011;4739;49.334;8.792;2022-08-21T03:19:10;4.27;;;3.33;;
9398;SDS011;4739;49.334;8.792;2022-08-21T03:21:37;3.77;;;3.40;;
9398;SDS011;4739;49.334;8.792;2022-08-21T03:24:03;4.13;;;3.40;;
9398;SDS011;4739;49.334;8.792;2022-08-21T03:26:29;4.40;;;3.27;;
9398;SDS011;4739;49.334;8.792;2022-08-21T03:28:55;4.57;;;3.40;;
9398;SDS011;4739;49.334;8.792;2022-08-21T03:31:22;3.60;;;3.30;;
9398;SDS011;4739;49.334;8.792;2022-08-21T03:33:48;4.37;;;3.67;;
9398;SDS011;4739;49.334;8.792;2022-08-21T03:36:15;3.63;;;3.30;;
9398;SDS011;4739;49.334;8.792;2022-08-21T03:38:41;4.60;;;3.73;;
9398;SDS011;4739;49.334;8.792;2022-08-21T03:41:07;4.07;;;3.77;;
9398;SDS011;4739;49.334;8.792;2022-08-21T03:43:34;5.27;;;3.80;;
9398;SDS011;4739;49.334;8.792;2022-08-21T03:46:01;3.77;;;3.33;;
9398;SDS011;4739;49.334;8.792;2022-08-21T03:48:28;4.03;;;3.53;;
9398;SDS011;4739;49.334;8.792;2022-08-21T03:50:54;4.70;;;3.63;;
9398;SDS011;4739;49.334;8.792;2022-08-21T03:53:21;5.40;;;3.30;;
9398;SDS011;4739;49.334;8.792;2022-08-21T03:55:48;5.40;;;3.60;;
9398;SDS011;4739;49.334;8.792;2022-08-21T03:58:16;3.87;;;3.50;;
9398;SDS011;4739;49.334;8.792;2022-08-21T04:00:42;3.70;;;3.40;;
9398;SDS011;4739;49.334;8.792;2022-08-21T04:03:08;4.53;;;3.60;;
9398;SDS011;4739;49.334;8.792;2022-08-21T04:05:34;4.10;;;3.67;;
9398;SDS011;4739;49.334;8.792;2022-08-21T04:08:02;4.23;;;3.40;;
9398;SDS011;4739;49.334;8.792;2022-08-21T04:10:29;5.13;;;3.70;;
9398;SDS011;4739;49.334;8.792;2022-08-21T04:12:55;5.20;;;3.20;;
9398;SDS011;4739;49.334;8.792;2022-08-21T04:15:22;4.37;;;3.70;;
9398;SDS011;4739;49.334;8.792;2022-08-21T04:17:49;3.80;;;3.50;;
9398;SDS011;4739;49.334;8.792;2022-08-21T04:20:15;4.00;;;3.60;;
9398;SDS011;4739;49.334;8.792;2022-08-21T04:22:42;4.07;;;3.43;;
9398;SDS011;4739;49.334;8.792;2022-08-21T04:25:09;3.40;;;3.10;;
9398;SDS011;4739;49.334;8.792;2022-08-21T04:27:35;4.53;;;3.80;;
9398;SDS011;4739;49.334;8.792;2022-08-21T04:30:01;4.30;;;3.37;;
9398;SDS011;4739;49.334;8.792;2022-08-21T04:32:27;3.97;;;3.60;;
9398;SDS011;4739;49.334;8.792;2022-08-21T04:34:57;5.03;;;3.57;;
9398;SDS011;4739;49.334;8.792;2022-08-21T04:37:24;4.47;;;3.90;;
9398;SDS011;4739;49.334;8.792;2022-08-21T04:39:49;4.03;;;3.63;;
9398;SDS011;4739;49.334;8.792;2022-08-21T04:42:15;3.87;;;3.53;;
9398;SDS011;4739;49.334;8.792;2022-08-21T04:44:42;4.33;;;3.93;;
9398;SDS011;4739;49.334;8.792;2022-08-21T04:47:08;4.37;;;3.67;;
9398;SDS011;4739;49.334;8.792;2022-08-21T04:49:34;4.37;;;3.97;;
9398;SDS011;4739;49.334;8.792;2022-08-21T04:52:00;4.37;;;3.63;;
9398;SDS011;4739;49.334;8.792;2022-08-21T04:54:26;4.17;;;3.70;;
9398;SDS011;4739;49.334;8.792;2022-08-21T04:56:53;4.97;;;3.67;;
9398;SDS011;4739;49.334;8.792;2022-08-21T04:59:21;4.33;;;3.83;;
9398;SDS011;4739;49.334;8.792;2022-08-21T05:01:48;4.43;;;4.03;;
9398;SDS011;4739;49.334;8.792;2022-08-21T05:04:15;4.57;;;3.70;;
9398;SDS011;4739;49.334;8.792;2022-08-21T05:06:43;4.90;;;3.87;;
9398;SDS011;4739;49.334;8.792;2022-08-21T05:09:09;4.20;;;3.80;;
9398;SDS011;4739;49.334;8.792;2022-08-21T05:11:38;5.00;;;3.97;;
9398;SDS011;4739;49.334;8.792;2022-08-21T05:14:04;4.53;;;3.97;;
9398;SDS011;4739;49.334;8.792;2022-08-21T05:16:30;5.63;;;3.93;;
9398;SDS011;4739;49.334;8.792;2022-08-21T05:18:56;4.20;;;3.80;;
9398;SDS011;4739;49.334;8.792;2022-08-21T05:21:23;4.20;;;3.80;;
9398;SDS011;4739;49.334;8.792;2022-08-21T05:23:49;3.90;;;3.60;;
9398;SDS011;4739;49.334;8.792;2022-08-21T05:26:15;5.23;;;4.03;;
9398;SDS011;4739;49.334;8.792;2022-08-21T05:28:41;5.27;;;4.13;;
9398;SDS011;4739;49.334;8.792;2022-08-21T05:31:07;5.13;;;4.27;;
9398;SDS011;4739;49.334;8.792;2022-08-21T05:33:33;5.23;;;3.80;;
9398;SDS011;4739;49.334;8.792;2022-08-21T05:35:59;4.43;;;4.03;;
9398;SDS011;4739;49.334;8.792;2022-08-21T05:38:25;4.10;;;3.67;;
9398;SDS011;4739;49.334;8.792;2022-08-21T05:40:53;4.50;;;4.10;;
9398;SDS011;4739;49.334;8.792;2022-08-21T05:43:19;5.23;;;4.33;;
9398;SDS011;4739;49.334;8.792;2022-08-21T05:45:46;5.17;;;4.67;;
9398;SDS011;4739;49.334;8.792;2022-08-21T05:48:23;4.70;;;4.10;;
9398;SDS011;4739;49.334;8.792;2022-08-21T05:50:50;5.60;;;4.40;;
9398;SDS011;4739;49.334;8.792;2022-08-21T05:53:17;4.87;;;4.47;;
9398;SDS011;4739;49.334;8.792;2022-08-21T05:55:44;6.17;;;5.53;;
9398;SDS011;4739;49.334;8.792;2022-08-21T05:58:10;5.23;;;4.83;;
9398;SDS011;4739;49.334;8.792;2022-08-21T06:00:36;5.80;;;5.23;;
9398;SDS011;4739;49.334;8.792;2022-08-21T06:03:02;5.77;;;4.90;;
9398;SDS011;4739;49.334;8.792;2022-08-21T06:05:29;5.30;;;4.80;;
9398;SDS011;4739;49.334;8.792;2022-08-21T06:07:55;5.93;;;5.33;;
9398;SDS011;4739;49.334;8.792;2022-08-21T06:10:21;5.33;;;4.83;;
9398;SDS011;4739;49.334;8.792;2022-08-21T06:12:52;5.70;;;5.20;;
9398;SDS011;4739;49.334;8.792;2022-08-21T06:15:18;5.43;;;4.93;;
9398;SDS011;4739;49.334;8.792;2022-08-21T06:17:44;5.70;;;5.10;;
9398;SDS011;4739;49.334;8.792;2022-08-21T06:20:10;6.30;;;5.23;;
9398;SDS011;4739;49.334;8.792;2022-08-21T06:22:36;6.10;;;5.50;;
9398;SDS011;4739;49.334;8.792;2022-08-21T06:25:03;6.50;;;5.87;;
9398;SDS011;4739;49.334;8.792;2022-08-21T06:27:29;5.57;;;5.07;;
9398;SDS011;4739;49.334;8.792;2022-08-21T06:29:55;5.77;;;5.23;;
9398;SDS011;4739;49.334;8.792;2022-08-21T06:32:22;5.80;;;5.20;;
9398;SDS011;4739;49.334;8.792;2022-08-21T06:34:48;7.50;;;5.47;;
9398;SDS011;4739;49.334;8.792;2022-08-21T06:37:14;5.10;;;4.60;;
9398;SDS011;4739;49.334;8.792;2022-08-21T06:39:40;5.50;;;5.00;;
9398;SDS011;4739;49.334;8.792;2022-08-21T06:42:06;6.07;;;5.57;;
9398;SDS011;4739;49.334;8.792;2022-08-21T06:44:35;6.20;;;5.60;;
9398;SDS011;4739;49.334;8.792;2022-08-21T06:47:01;5.57;;;5.00;;
9398;SDS011;4739;49.334;8.792;2022-08-21T06:49:27;6.07;;;5.17;;
9398;SDS011;4739;49.334;8.792;2022-08-21T06:51:53;6.13;;;5.17;;
9398;SDS011;4739;49.334;8.792;2022-08-21T06:54:19;6.20;;;5.60;;
9398;SDS011;4739;49.334;8.792;2022-08-21T06:56:45;5.43;;;4.80;;
9398;SDS011;4739;49.334;8.792;2022-08-21T06:59:11;5.23;;;4.73;;
9398;SDS011;4739;49.334;8.792;2022-08-21T07:01:38;5.60;;;5.10;;
9398;SDS011;4739;49.334;8.792;2022-08-21T07:04:04;6.90;;;5.40;;
9398;SDS011;4739;49.334;8.792;2022-08-21T07:06:30;6.27;;;5.33;;
9398;SDS011;4739;49.334;8.792;2022-08-21T07:08:56;7.10;;;5.20;;
9398;SDS011;4739;49.334;8.792;2022-08-21T07:11:22;6.73;;;5.93;;
9398;SDS011;4739;49.334;8.792;2022-08-21T07:13:49;7.37;;;5.53;;
9398;SDS011;4739;49.334;8.792;2022-08-21T07:16:17;6.50;;;5.23;;
9398;SDS011;4739;49.334;8.792;2022-08-21T07:18:43;9.60;;;5.63;;
9398;SDS011;4739;49.334;8.792;2022-08-21T07:21:10;5.77;;;5.13;;
9398;SDS011;4739;49.334;8.792;2022-08-21T07:23:38;5.90;;;5.27;;
9398;SDS011;4739;49.334;8.792;2022-08-21T07:26:05;6.10;;;5.57;;
9398;SDS011;4739;49.334;8.792;2022-08-21T07:28:31;6.63;;;5.13;;
9398;SDS011;4739;49.334;8.792;2022-08-21T07:30:58;6.63;;;5.70;;
9398;SDS011;4739;49.334;8.792;2022-08-21T07:33:25;6.83;;;5.40;;
9398;SDS011;4739;49.334;8.792;2022-08-21T07:35:51;5.67;;;5.13;;
9398;SDS011;4739;49.334;8.792;2022-08-21T07:38:17;7.47;;;5.20;;
9398;SDS011;4739;49.334;8.792;2022-08-21T07:40:44;6.43;;;5.67;;
9398;SDS011;4739;49.334;8.792;2022-08-21T07:43:10;7.00;;;5.40;;
9398;SDS011;4739;49.334;8.792;2022-08-21T07:45:36;7.20;;;5.40;;
9398;SDS011;4739;49.334;8.792;2022-08-21T07:50:35;6.53;;;5.13;;
9398;SDS011;4739;49.334;8.792;2022-08-21T07:53:01;8.03;;;5.37;;
9398;SDS011;4739;49.334;8.792;2022-08-21T07:55:27;7.43;;;5.23;;
9398;SDS011;4739;49.334;8.792;2022-08-21T07:57:53;6.93;;;5.10;;
9398;SDS011;4739;49.334;8.792;2022-08-21T08:00:21;7.27;;;4.90;;
9398;SDS011;4739;49.334;8.792;2022-08-21T08:02:48;6.00;;;5.00;;
9398;SDS011;4739;49.334;8.792;2022-08-21T08:05:19;7.73;;;5.03;;
9398;SDS011;4739;49.334;8.792;2022-08-21T08:07:46;6.03;;;4.83;;
9398;SDS011;4739;49.334;8.792;2022-08-21T08:10:12;7.70;;;5.00;;
9398;SDS011;4739;49.334;8.792;2022-08-21T08:12:40;5.97;;;4.83;;
9398;SDS011;4739;49.334;8.792;2022-08-21T08:15:07;6.07;;;4.70;;
9398;SDS011;4739;49.334;8.792;2022-08-21T08:17:34;8.43;;;5.20;;
9398;SDS011;4739;49.334;8.792;2022-08-21T08:20:01;6.20;;;4.30;;
9398;SDS011;4739;49.334;8.792;2022-08-21T08:22:27;9.97;;;4.50;;
9398;SDS011;4739;49.334;8.792;2022-08-21T08:24:53;7.13;;;4.50;;
9398;SDS011;4739;49.334;8.792;2022-08-21T08:27:20;6.37;;;4.57;;
9398;SDS011;4739;49.334;8.792;2022-08-21T08:29:46;6.93;;;4.60;;
9398;SDS011;4739;49.334;8.792;2022-08-21T08:32:12;9.10;;;5.03;;
9398;SDS011;4739;49.334;8.792;2022-08-21T08:34:39;6.20;;;4.23;;
9398;SDS011;4739;49.334;8.792;2022-08-21T08:37:06;8.83;;;5.40;;
9398;SDS011;4739;49.334;8.792;2022-08-21T08:39:32;8.50;;;5.20;;
9398;SDS011;4739;49.334;8.792;2022-08-21T08:44:43;6.73;;;4.90;;
9398;SDS011;4739;49.334;8.792;2022-08-21T08:47:11;6.90;;;4.80;;
9398;SDS011;4739;49.334;8.792;2022-08-21T08:50:00;5.90;;;5.10;;
9398;SDS011;4739;49.334;8.792;2022-08-21T08:52:37;7.00;;;4.50;;
9398;SDS011;4739;49.334;8.792;2022-08-21T08:55:17;7.83;;;4.90;;
9398;SDS011;4739;49.334;8.792;2022-08-21T08:57:45;7.93;;;4.60;;
9398;SDS011;4739;49.334;8.792;2022-08-21T09:00:12;7.73;;;4.57;;
9398;SDS011;4739;49.334;8.792;2022-08-21T09:02:39;5.87;;;4.00;;
9398;SDS011;4739;49.334;8.792;2022-08-21T09:05:05;6.37;;;4.60;;
9398;SDS011;4739;49.334;8.792;2022-08-21T09:07:39;9.00;;;5.47;;
9398;SDS011;4739;49.334;8.792;2022-08-21T09:12:56;5.93;;;4.53;;
9398;SDS011;4739;49.334;8.792;2022-08-21T09:18:34;5.77;;;4.67;;
9398;SDS011;4739;49.334;8.792;2022-08-21T09:28:26;6.07;;;3.77;;
9398;SDS011;4739;49.334;8.792;2022-08-21T09:30:54;6.70;;;3.90;;
9398;SDS011;4739;49.334;8.792;2022-08-21T09:33:21;7.33;;;4.10;;
9398;SDS011;4739;49.334;8.792;2022-08-21T09:35:48;7.60;;;4.10;;
9398;SDS011;4739;49.334;8.792;2022-08-21T09:38:24;5.97;;;4.23;;
9398;SDS011;4739;49.334;8.792;2022-08-21T09:40:56;5.80;;;3.97;;
9398;SDS011;4739;49.334;8.792;2022-08-21T09:43:23;6.53;;;3.87;;
9398;SDS011;4739;49.334;8.792;2022-08-21T09:48:27;7.00;;;3.47;;
9398;SDS011;4739;49.334;8.792;2022-08-21T09:51:04;7.50;;;3.50;;
9398;SDS011;4739;49.334;8.792;2022-08-21T09:53:31;6.07;;;2.90;;
9398;SDS011;4739;49.334;8.792;2022-08-21T09:56:05;7.90;;;3.43;;
9398;SDS011;4739;49.334;8.792;2022-08-21T09:58:50;6.55;;;3.25;;
9398;SDS011;4739;49.334;8.792;2022-08-21T10:01:19;5.70;;;3.30;;
9398;SDS011;4739;49.334;8.792;2022-08-21T10:03:45;4.15;;;2.95;;
9398;SDS011;4739;49.334;8.792;2022-08-21T10:06:21;6.70;;;3.20;;
9398;SDS011;4739;49.334;8.792;2022-08-21T10:08:47;6.05;;;3.42;;
9398;SDS011;4739;49.334;8.792;2022-08-21T10:11:14;5.78;;;2.85;;
9398;SDS011;4739;49.334;8.792;2022-08-21T10:14:03;6.40;;;2.92;;
9398;SDS011;4739;49.334;8.792;2022-08-21T10:19:29;7.40;;;3.10;;
9398;SDS011;4739;49.334;8.792;2022-08-21T10:30:03;6.85;;;3.10;;
9398;SDS011;4739;49.334;8.792;2022-08-21T10:34:59;4.70;;;2.80;;
9398;SDS011;4739;49.334;8.792;2022-08-21T10:42:32;5.30;;;3.15;;
9398;SDS011;4739;49.334;8.792;2022-08-21T10:54:57;5.75;;;3.20;;
9398;SDS011;4739;49.334;8.792;2022-08-21T11:00:00;7.60;;;3.60;;
9398;SDS011;4739;49.334;8.792;2022-08-21T11:02:35;4.75;;;3.20;;
9398;SDS011;4739;49.334;8.792;2022-08-21T11:05:05;4.38;;;3.10;;
9398;SDS011;4739;49.334;8.792;2022-08-21T11:08:17;4.32;;;2.83;;
9398;SDS011;4739;49.334;8.792;2022-08-21T11:10:31;4.38;;;3.03;;
9398;SDS011;4739;49.334;8.792;2022-08-21T11:13:00;5.45;;;3.35;;
9398;SDS011;4739;49.334;8.792;2022-08-21T11:23:14;4.55;;;3.25;;
9398;SDS011;4739;49.334;8.792;2022-08-21T11:25:44;6.35;;;3.22;;
9398;SDS011;4739;49.334;8.792;2022-08-21T11:28:22;5.80;;;3.17;;
9398;SDS011;4739;49.334;8.792;2022-08-21T11:38:38;4.43;;;3.10;;
9398;SDS011;4739;49.334;8.792;2022-08-21T11:41:12;4.40;;;3.30;;
9398;SDS011;4739;49.334;8.792;2022-08-21T11:43:46;6.03;;;3.50;;
9398;SDS011;4739;49.334;8.792;2022-08-21T11:52:07;5.82;;;3.10;;
9398;SDS011;4739;49.334;8.792;2022-08-21T11:54:16;4.07;;;2.85;;
9398;SDS011;4739;49.334;8.792;2022-08-21T11:56:48;5.43;;;3.08;;
9398;SDS011;4739;49.334;8.792;2022-08-21T11:59:18;6.47;;;3.10;;
9398;SDS011;4739;49.334;8.792;2022-08-21T12:01:46;4.60;;;2.67;;
9398;SDS011;4739;49.334;8.792;2022-08-21T12:04:35;6.95;;;3.00;;
9398;SDS011;4739;49.334;8.792;2022-08-21T12:07:14;4.22;;;2.75;;
9398;SDS011;4739;49.334;8.792;2022-08-21T12:09:51;5.63;;;2.70;;
9398;SDS011;4739;49.334;8.792;2022-08-21T12:12:24;4.90;;;2.72;;
9398;SDS011;4739;49.334;8.792;2022-08-21T12:14:51;3.38;;;2.40;;
9398;SDS011;4739;49.334;8.792;2022-08-21T12:17:36;5.28;;;2.50;;
9398;SDS011;4739;49.334;8.792;2022-08-21T12:20:16;7.15;;;2.50;;
9398;SDS011;4739;49.334;8.792;2022-08-21T12:22:47;5.10;;;2.65;;
9398;SDS011;4739;49.334;8.792;2022-08-21T12:25:16;3.28;;;2.17;;
9398;SDS011;4739;49.334;8.792;2022-08-21T12:27:46;4.65;;;2.63;;
9398;SDS011;4739;49.334;8.792;2022-08-21T12:30:21;3.10;;;2.50;;
9398;SDS011;4739;49.334;8.792;2022-08-21T12:32:54;5.22;;;3.05;;
9398;SDS011;4739;49.334;8.792;2022-08-21T12:35:25;6.75;;;2.40;;
9398;SDS011;4739;49.334;8.792;2022-08-21T12:37:55;3.15;;;2.42;;
9398;SDS011;4739;49.334;8.792;2022-08-21T12:40:23;4.35;;;2.63;;
9398;SDS011;4739;49.334;8.792;2022-08-21T12:42:52;3.80;;;2.50;;
9398;SDS011;4739;49.334;8.792;2022-08-21T12:45:20;3.15;;;2.58;;
9398;SDS011;4739;49.334;8.792;2022-08-21T12:50:21;4.10;;;2.85;;
9398;SDS011;4739;49.334;8.792;2022-08-21T12:55:33;3.08;;;2.40;;
9398;SDS011;4739;49.334;8.792;2022-08-21T12:57:59;4.82;;;2.38;;
9398;SDS011;4739;49.334;8.792;2022-08-21T13:00:27;4.40;;;2.42;;
9398;SDS011;4739;49.334;8.792;2022-08-21T13:02:54;5.25;;;2.38;;
9398;SDS011;4739;49.334;8.792;2022-08-21T13:05:39;3.88;;;2.25;;
9398;SDS011;4739;49.334;8.792;2022-08-21T13:08:06;3.50;;;2.35;;
9398;SDS011;4739;49.334;8.792;2022-08-21T13:10:33;5.20;;;2.75;;
9398;SDS011;4739;49.334;8.792;2022-08-21T13:13:01;4.05;;;2.60;;
9398;SDS011;4739;49.334;8.792;2022-08-21T13:15:29;2.28;;;1.90;;
9398;SDS011;4739;49.334;8.792;2022-08-21T13:17:56;4.13;;;2.40;;
9398;SDS011;4739;49.334;8.792;2022-08-21T13:20:29;6.22;;;2.30;;
9398;SDS011;4739;49.334;8.792;2022-08-21T13:22:55;4.13;;;2.95;;
9398;SDS011;4739;49.334;8.792;2022-08-21T13:25:25;3.33;;;2.97;;
9398;SDS011;4739;49.334;8.792;2022-08-21T13:30:24;4.95;;;3.30;;
9398;SDS011;4739;49.334;8.792;2022-08-21T13:32:51;4.88;;;3.78;;
9398;SDS011;4739;49.334;8.792;2022-08-21T13:35:21;5.95;;;3.42;;
9398;SDS011;4739;49.334;8.792;2022-08-21T13:37:48;4.15;;;3.05;;
9398;SDS011;4739;49.334;8.792;2022-08-21T13:40:18;4.20;;;2.53;;
9398;SDS011;4739;49.334;8.792;2022-08-21T13:42:46;4.22;;;2.55;;
9398;SDS011;4739;49.334;8.792;2022-08-21T13:45:18;4.22;;;2.38;;
9398;SDS011;4739;49.334;8.792;2022-08-21T13:50:19;3.38;;;2.20;;
9398;SDS011;4739;49.334;8.792;2022-08-21T13:52:47;5.43;;;2.38;;
9398;SDS011;4739;49.334;8.792;2022-08-21T13:55:16;4.07;;;2.45;;
9398;SDS011;4739;49.334;8.792;2022-08-21T13:57:42;5.35;;;2.53;;
9398;SDS011;4739;49.334;8.792;2022-08-21T14:00:09;4.45;;;2.10;;
9398;SDS011;4739;49.334;8.792;2022-08-21T14:02:37;4.35;;;2.40;;
9398;SDS011;4739;49.334;8.792;2022-08-21T14:05:05;3.28;;;2.22;;
9398;SDS011;4739;49.334;8.792;2022-08-21T14:07:33;3.70;;;2.30;;
9398;SDS011;4739;49.334;8.792;2022-08-21T14:10:01;5.03;;;2.15;;
9398;SDS011;4739;49.334;8.792;2022-08-21T14:13:29;5.65;;;2.13;;
9398;SDS011;4739;49.334;8.792;2022-08-21T14:15:24;3.80;;;2.00;;
9398;SDS011;4739;49.334;8.792;2022-08-21T14:17:50;3.45;;;1.98;;
9398;SDS011;4739;49.334;8.792;2022-08-21T14:20:30;3.22;;;2.00;;
9398;SDS011;4739;49.334;8.792;2022-08-21T14:22:56;4.22;;;2.22;;
9398;SDS011;4739;49.334;8.792;2022-08-21T14:27:56;3.50;;;2.35;;
9398;SDS011;4739;49.334;8.792;2022-08-21T14:32:49;4.13;;;2.30;;
9398;SDS011;4739;49.334;8.792;2022-08-21T14:35:15;2.97;;;2.10;;
9398;SDS011;4739;49.334;8.792;2022-08-21T14:37:43;3.67;;;1.90;;
9398;SDS011;4739;49.334;8.792;2022-08-21T14:40:09;3.63;;;2.00;;
9398;SDS011;4739;49.334;8.792;2022-08-21T14:42:36;3.25;;;2.00;;
9398;SDS011;4739;49.334;8.792;2022-08-21T14:45:06;2.88;;;1.85;;
9398;SDS011;4739;49.334;8.792;2022-08-21T14:47:33;3.25;;;2.10;;
9398;SDS011;4739;49.334;8.792;2022-08-21T14:49:59;3.45;;;2.00;;
9398;SDS011;4739;49.334;8.792;2022-08-21T14:52:25;3.55;;;2.30;;
9398;SDS011;4739;49.334;8.792;2022-08-21T14:54:51;3.45;;;2.08;;
9398;SDS011;4739;49.334;8.792;2022-08-21T14:57:17;3.50;;;2.00;;
9398;SDS011;4739;49.334;8.792;2022-08-21T14:59:43;3.45;;;2.20;;
9398;SDS011;4739;49.334;8.792;2022-08-21T15:02:09;4.40;;;2.17;;
9398;SDS011;4739;49.334;8.792;2022-08-21T15:04:35;4.45;;;2.30;;
9398;SDS011;4739;49.334;8.792;2022-08-21T15:07:01;4.20;;;2.10;;
9398;SDS011;4739;49.334;8.792;2022-08-21T15:09:28;2.28;;;2.05;;
9398;SDS011;4739;49.334;8.792;2022-08-21T15:11:55;3.97;;;2.00;;
9398;SDS011;4739;49.334;8.792;2022-08-21T15:14:24;4.82;;;2.22;;
9398;SDS011;4739;49.334;8.792;2022-08-21T15:16:50;2.53;;;1.85;;
9398;SDS011;4739;49.334;8.792;2022-08-21T15:19:16;3.90;;;2.28;;
9398;SDS011;4739;49.334;8.792;2022-08-21T15:21:42;2.67;;;2.00;;
9398;SDS011;4739;49.334;8.792;2022-08-21T15:24:08;5.43;;;2.40;;
9398;SDS011;4739;49.334;8.792;2022-08-21T15:26:35;2.25;;;2.00;;
9398;SDS011;4739;49.334;8.792;2022-08-21T15:29:01;3.45;;;2.20;;
9398;SDS011;4739;49.334;8.792;2022-08-21T15:31:27;2.40;;;1.90;;
9398;SDS011;4739;49.334;8.792;2022-08-21T15:33:53;4.75;;;2.28;;
9398;SDS011;4739;49.334;8.792;2022-08-21T15:36:20;3.63;;;2.47;;
9398;SDS011;4739;49.334;8.792;2022-08-21T15:38:46;2.88;;;2.05;;
9398;SDS011;4739;49.334;8.792;2022-08-21T15:41:12;4.10;;;2.10;;
9398;SDS011;4739;49.334;8.792;2022-08-21T15:46:08;3.58;;;1.85;;
9398;SDS011;4739;49.334;8.792;2022-08-21T15:48:35;3.60;;;2.05;;
9398;SDS011;4739;49.334;8.792;2022-08-21T15:51:01;5.15;;;2.40;;
9398;SDS011;4739;49.334;8.792;2022-08-21T15:53:27;3.28;;;2.10;;
9398;SDS011;4739;49.334;8.792;2022-08-21T15:55:53;3.80;;;2.55;;
9398;SDS011;4739;49.334;8.792;2022-08-21T15:58:19;3.13;;;2.30;;
9398;SDS011;4739;49.334;8.792;2022-08-21T16:00:47;6.18;;;2.25;;
9398;SDS011;4739;49.334;8.792;2022-08-21T16:03:15;4.38;;;2.55;;
9398;SDS011;4739;49.334;8.792;2022-08-21T16:05:43;3.22;;;2.10;;
9398;SDS011;4739;49.334;8.792;2022-08-21T16:08:09;3.30;;;1.90;;
9398;SDS011;4739;49.334;8.792;2022-08-21T16:10:36;2.53;;;1.98;;
9398;SDS011;4739;49.334;8.792;2022-08-21T16:13:03;2.75;;;2.05;;
9398;SDS011;4739;49.334;8.792;2022-08-21T16:15:30;3.45;;;2.17;;
9398;SDS011;4739;49.334;8.792;2022-08-21T16:17:56;3.60;;;2.40;;
9398;SDS011;4739;49.334;8.792;2022-08-21T16:20:24;3.55;;;2.30;;
9398;SDS011;4739;49.334;8.792;2022-08-21T16:22:51;3.97;;;2.25;;
9398;SDS011;4739;49.334;8.792;2022-08-21T16:25:17;4.63;;;2.55;;
9398;SDS011;4739;49.334;8.792;2022-08-21T16:27:44;3.80;;;2.22;;
9398;SDS011;4739;49.334;8.792;2022-08-21T16:30:11;3.72;;;2.35;;
9398;SDS011;4739;49.334;8.792;2022-08-21T16:32:39;2.40;;;2.10;;
9398;SDS011;4739;49.334;8.792;2022-08-21T16:35:05;5.95;;;2.70;;
9398;SDS011;4739;49.334;8.792;2022-08-21T16:37:31;3.75;;;2.13;;
9398;SDS011;4739;49.334;8.792;2022-08-21T16:39:57;4.32;;;2.38;;
9398;SDS011;4739;49.334;8.792;2022-08-21T16:42:25;4.10;;;2.25;;
9398;SDS011;4739;49.334;8.792;2022-08-21T16:44:53;4.18;;;2.25;;
9398;SDS011;4739;49.334;8.792;2022-08-21T16:47:19;4.80;;;2.47;;
9398;SDS011;4739;49.334;8.792;2022-08-21T16:49:45;3.13;;;2.28;;